Terminal Aerodrome Forecast
Issued by NWS

Home | Current Version | Previous Version | Text Only | Print | Product List | Glossary On
Versions: 1 2 3 4 5 6 7 8 9 10 11 12 13 14
000
FTUS44 KLZK 301100
TAFLIT
TAF
KLIT 301132Z 3012/3112 16003KT P6SM SCT100 BKN250
     FM301500 18005KT P6SM SCT080 OVC120
     FM302000 24006KT P6SM VCSH OVC050
     FM310100 01003KT 5SM -SHRA BR OVC040
      TEMPO 3109/3112 2SM SHRA BR OVC025=

USA.gov is the U.S. government's official web portal to all federal, state and local government web resources and services.